Fawn, Pennsylvania
Current Conditions -  °F | °C
As of 5:53 AM on Sunday 23 Nov 2014 (Local Time) from KTHV Reporting Station
Clear Clear  
Wind Chill: 25°   Ceiling: Unl
Heat Index: 30°   Visibility: 10mi
Dew Point: 21°   Wind: 5mph
Humidity: 69%   Direction: 230°SW
Pressure: 30.19"   Gusts: NA
Location:  39.7571°N, 76.4417°W
Report Text: KTHV 231053Z AUTO 23004KT 10SM CLR M01/M06 A3019 RMK AO2 SLP230 T10111061
Loading
Personal Weather Stations






























Interactive Weather Map New forecast layout! Learn more

10-Day Weather Forecast

Advertisements
Track Severe Weather on mobile